Time;durP1;ratioP1;P1;durP2;ratioP2;P2;SDS_P1;SDS_P2;PMS_P1;PMS_P2;Temp;Humidity;BMP_temperature;BMP_pressure;BME280_temperature;BME280_humidity;BME280_pressure;Samples;Min_cycle;Max_cycle;Signal;HPM_P1;HPM_P2
2022/08/05 00:00:17;;;;;;;2.63;2.42;;;28.50;54.00;29.50;100473.00;;;;5030043;28;20261;-41
2022/08/05 00:02:44;;;;;;;3.40;2.40;;;28.50;54.00;29.50;100474.00;;;;5029471;28;20318;-42
2022/08/05 00:05:10;;;;;;;3.20;2.47;;;28.50;54.20;29.40;100466.00;;;;5044442;28;20218;-47
2022/08/05 00:07:36;;;;;;;3.35;2.40;;;28.40;54.20;29.40;100460.00;;;;5028807;28;20692;-42
2022/08/05 00:10:01;;;;;;;3.45;2.42;;;28.40;54.20;29.40;100465.00;;;;5029045;28;20163;-42
2022/08/05 00:12:27;;;;;;;3.05;2.60;;;28.40;54.20;29.30;100459.00;;;;5028988;28;20901;-41
2022/08/05 00:14:53;;;;;;;3.22;2.53;;;28.40;54.20;29.30;100458.00;;;;5029444;28;20209;-42
2022/08/05 00:17:19;;;;;;;2.97;2.38;;;28.40;54.40;29.30;100449.00;;;;5028751;28;20653;-41
2022/08/05 00:19:44;;;;;;;4.22;2.58;;;28.30;54.40;29.30;100453.00;;;;5029015;28;20171;-42
2022/08/05 00:22:10;;;;;;;2.95;2.50;;;28.30;55.10;29.20;100452.00;;;;5028902;28;20179;-42
2022/08/05 00:24:36;;;;;;;3.30;2.53;;;28.20;54.50;29.20;100460.00;;;;5027761;28;20179;-41
2022/08/05 00:27:02;;;;;;;2.83;2.30;;;28.30;54.60;29.20;100460.00;;;;5028348;28;20201;-41
2022/08/05 00:29:27;;;;;;;4.38;2.70;;;28.20;54.80;29.20;100471.00;;;;5029113;28;20175;-41
2022/08/05 00:31:54;;;;;;;3.92;2.45;;;28.20;54.80;29.20;100462.00;;;;5029456;28;20254;-41
2022/08/05 00:34:19;;;;;;;3.17;2.60;;;28.20;54.80;29.20;100462.00;;;;5027228;28;20171;-41
2022/08/05 00:36:45;;;;;;;2.88;2.20;;;28.20;54.90;29.10;100451.00;;;;5027772;28;20197;-41
2022/08/05 00:39:11;;;;;;;4.45;2.50;;;28.20;55.00;29.10;100447.00;;;;5027888;28;20174;-41
2022/08/05 00:41:37;;;;;;;3.50;2.70;;;28.20;55.00;29.10;100445.00;;;;5028436;28;20191;-42
2022/08/05 00:44:03;;;;;;;5.03;2.90;;;28.10;55.00;29.10;100452.00;;;;5028468;28;20518;-41
2022/08/05 00:46:28;;;;;;;2.90;2.58;;;28.10;55.10;29.10;100447.00;;;;5027960;28;20238;-41
2022/08/05 00:48:54;;;;;;;4.03;2.55;;;28.10;55.00;29.10;100451.00;;;;5027768;28;20688;-42
2022/08/05 00:51:20;;;;;;;3.33;2.40;;;28.20;55.10;29.10;100443.00;;;;5028451;28;20171;-42
2022/08/05 00:53:46;;;;;;;3.42;2.42;;;28.10;55.10;29.10;100456.00;;;;5027905;28;20163;-42
2022/08/05 00:56:14;;;;;;;3.08;2.50;;;28.10;55.20;29.10;100462.00;;;;5027888;28;20195;-41
2022/08/05 00:58:40;;;;;;;4.10;2.50;;;28.10;55.30;29.10;100466.00;;;;5042948;28;20171;-41
2022/08/05 01:01:05;;;;;;;3.35;2.47;;;28.10;55.40;29.00;100480.00;;;;5028017;28;20178;-41
2022/08/05 01:03:31;;;;;;;3.63;2.65;;;28.00;55.50;29.00;100482.00;;;;5027995;28;20679;-42
2022/08/05 01:05:57;;;;;;;3.40;2.58;;;28.00;55.60;29.00;100488.00;;;;5027789;28;20199;-41
2022/08/05 01:08:23;;;;;;;3.70;2.58;;;27.90;55.60;28.90;100490.00;;;;5027351;28;20172;-41
2022/08/05 01:10:53;;;;;;;6.05;2.60;;;27.90;55.80;28.90;100493.00;;;;5028038;28;20194;-41
2022/08/05 01:13:58;;;;;;;3.38;2.40;;;27.90;55.90;28.90;100496.00;;;;5043604;28;20309;-41
2022/08/05 01:16:47;;;;;;;5.68;2.70;;;28.00;55.80;28.90;100500.00;;;;5041788;28;20240;-41
2022/08/05 01:19:23;;;;;;;5.22;2.92;;;28.00;55.80;28.90;100496.00;;;;5041343;28;20159;-41
2022/08/05 01:22:32;;;;;;;4.10;2.55;;;27.90;56.10;28.80;100508.00;;;;5042152;28;20178;-42
2022/08/05 01:25:33;;;;;;;2.70;2.30;;;27.80;56.00;28.80;100501.00;;;;5040863;28;20677;-41
2022/08/05 01:28:16;;;;;;;2.42;2.22;;;27.90;56.10;28.80;100509.00;;;;5043203;28;20710;-41
2022/08/05 01:30:51;;;;;;;4.55;2.50;;;27.90;56.10;28.80;100493.00;;;;5027078;28;20163;-41
2022/08/05 01:33:17;;;;;;;4.22;2.80;;;27.90;56.10;28.80;100506.00;;;;5044598;28;20159;-41
2022/08/05 01:35:43;;;;;;;3.58;2.40;;;27.90;56.10;28.70;100502.00;;;;5051091;28;20179;-41
2022/08/05 01:38:09;;;;;;;3.35;2.40;;;27.90;56.10;28.70;100515.00;;;;5044367;28;20171;-42
2022/08/05 01:40:35;;;;;;;3.47;2.50;;;27.90;56.10;28.70;100512.00;;;;5042936;28;20181;-42
2022/08/05 01:43:01;;;;;;;4.22;2.70;;;27.90;56.10;28.70;100521.00;;;;5042639;28;20170;-42
2022/08/05 01:45:28;;;;;;;3.42;2.47;;;27.90;56.70;28.70;100518.00;;;;5042377;28;20699;-41
2022/08/05 01:47:54;;;;;;;3.15;2.70;;;27.90;56.10;28.70;100535.00;;;;5044393;28;20696;-42
2022/08/05 01:50:34;;;;;;;3.13;2.50;;;27.90;56.00;28.70;100536.00;;;;5047136;28;20221;-42
2022/08/05 01:53:03;;;;;;;4.10;2.50;;;27.80;56.00;28.70;100546.00;;;;5044850;28;20174;-40
2022/08/05 01:55:31;;;;;;;4.82;2.70;;;27.80;56.00;28.70;100543.00;;;;5046353;28;20707;-41
2022/08/05 01:57:57;;;;;;;4.03;2.55;;;27.80;56.00;28.70;100539.00;;;;5031239;28;20182;-41
2022/08/05 02:00:23;;;;;;;2.83;2.63;;;27.80;56.10;28.70;100539.00;;;;5046494;28;20167;-41
2022/08/05 02:02:59;;;;;;;4.15;2.95;;;27.80;56.30;28.60;100549.00;;;;5046725;28;20182;-41
2022/08/05 02:05:29;;;;;;;3.40;2.78;;;27.70;56.40;28.60;100555.00;;;;5045581;28;20725;-41
2022/08/05 02:07:56;;;;;;;5.53;2.95;;;27.70;56.40;28.60;100563.00;;;;5046167;28;20386;-42
2022/08/05 02:10:22;;;;;;;3.22;2.85;;;27.60;56.60;28.50;100589.00;;;;5046345;28;20174;-42
2022/08/05 02:12:53;;;;;;;4.38;2.60;;;27.60;56.70;28.50;100583.00;;;;5046664;28;20589;-42
2022/08/05 02:15:40;;;;;;;4.47;2.80;;;27.60;56.90;28.40;100582.00;;;;5029394;28;20267;-42
2022/08/05 02:18:22;;;;;;;3.13;2.80;;;27.50;57.00;28.40;100583.00;;;;5043845;28;20160;-42
2022/08/05 02:21:01;;;;;;;5.25;2.70;;;27.50;57.20;28.40;100597.00;;;;5050400;28;20215;-41
2022/08/05 02:23:30;;;;;;;4.68;3.03;;;27.40;57.70;28.30;100581.00;;;;5049935;28;20246;-42
2022/08/05 02:25:56;;;;;;;3.15;2.50;;;27.40;57.40;28.30;100583.00;;;;5045940;28;20194;-42
2022/08/05 02:28:29;;;;;;;3.55;2.70;;;27.30;57.60;28.20;100590.00;;;;5046311;28;20171;-40
2022/08/05 02:31:11;;;;;;;3.75;2.80;;;27.30;57.90;28.20;100591.00;;;;5046182;28;20147;-41
2022/08/05 02:33:43;;;;;;;3.67;2.90;;;27.20;57.80;28.20;100612.00;;;;5045224;28;20626;-41
2022/08/05 02:36:11;;;;;;;2.83;2.53;;;27.20;57.80;28.10;100619.00;;;;5045796;28;20195;-40
2022/08/05 02:38:36;;;;;;;3.10;2.60;;;27.20;57.90;28.10;100635.00;;;;5046070;28;20221;-41
2022/08/05 02:41:03;;;;;;;3.88;2.80;;;27.20;57.80;28.10;100643.00;;;;5046095;28;20179;-42
2022/08/05 02:43:28;;;;;;;3.05;2.75;;;27.20;57.90;28.10;100646.00;;;;5030591;28;20183;-41
2022/08/05 02:45:54;;;;;;;5.57;3.28;;;27.20;57.90;28.00;100650.00;;;;5045310;28;20262;-41
2022/08/05 02:48:21;;;;;;;3.25;2.80;;;27.10;58.00;28.00;100660.00;;;;5045400;28;20163;-42
2022/08/05 02:50:49;;;;;;;3.63;2.72;;;27.10;58.50;28.00;100679.00;;;;5045936;28;20233;-42
2022/08/05 02:53:15;;;;;;;3.63;3.13;;;27.00;58.70;27.90;100693.00;;;;5045778;28;20727;-41
2022/08/05 02:55:40;;;;;;;4.97;3.42;;;27.00;58.80;27.90;100710.00;;;;5045990;28;20194;-41
2022/08/05 02:58:06;;;;;;;5.72;3.88;;;27.00;59.20;27.90;100726.00;;;;5045390;28;20171;-41
2022/08/05 03:00:33;;;;;;;5.20;4.10;;;26.90;59.40;27.80;100769.00;;;;5045324;28;20543;-40
2022/08/05 03:02:59;;;;;;;7.25;3.38;;;26.40;62.20;27.70;100707.00;;;;5045310;28;20171;-41
2022/08/05 03:05:25;;;;;;;4.30;3.30;;;26.50;61.80;27.70;100676.00;;;;5044674;28;20719;-41
2022/08/05 03:07:51;;;;;;;6.10;3.30;;;26.70;60.80;27.80;100608.00;;;;5042939;28;20199;-41
2022/08/05 03:10:17;;;;;;;4.43;3.20;;;26.90;60.60;27.80;100523.00;;;;5044617;28;20187;-42
2022/08/05 03:12:42;;;;;;;5.65;3.50;;;27.00;59.90;27.80;100491.00;;;;5046262;28;20218;-41
2022/08/05 03:15:09;;;;;;;4.07;3.20;;;27.10;59.60;27.90;100466.00;;;;5030514;28;20201;-41
2022/08/05 03:17:36;;;;;;;5.15;3.90;;;27.10;59.50;27.90;100462.00;;;;5030694;28;20178;-41
2022/08/05 03:20:03;;;;;;;5.93;3.28;;;27.20;59.40;27.90;100468.00;;;;5030410;28;20179;-42
2022/08/05 03:22:28;;;;;;;6.15;3.67;;;27.20;59.20;28.00;100485.00;;;;5029608;28;20590;-41
2022/08/05 03:24:54;;;;;;;5.20;3.38;;;27.20;59.10;28.00;100515.00;;;;5029524;28;20194;-42
2022/08/05 03:27:20;;;;;;;4.90;3.90;;;27.20;58.70;28.00;100530.00;;;;5044490;28;20186;-41
2022/08/05 03:29:46;;;;;;;4.78;3.88;;;27.20;58.80;28.00;100562.00;;;;5043825;28;20225;-41
2022/08/05 03:32:12;;;;;;;4.30;3.90;;;26.90;59.90;27.80;100577.00;;;;5044919;28;20179;-42
2022/08/05 03:34:38;;;;;;;3.50;3.20;;;26.60;60.80;27.80;100591.00;;;;5044813;28;20186;-42
2022/08/05 03:37:04;;;;;;;3.80;3.10;;;26.70;60.60;27.80;100602.00;;;;5044279;28;20171;-42
2022/08/05 03:39:30;;;;;;;3.15;2.88;;;26.80;60.20;27.80;100595.00;;;;5028715;28;20198;-42
2022/08/05 03:41:56;;;;;;;4.50;3.50;;;26.90;59.80;27.80;100581.00;;;;5029321;28;20648;-42
2022/08/05 03:44:22;;;;;;;4.57;3.42;;;26.80;59.80;27.70;100594.00;;;;5029125;28;20167;-42
2022/08/05 03:46:48;;;;;;;4.40;3.50;;;26.60;61.40;27.60;100594.00;;;;5028921;28;20191;-41
2022/08/05 03:49:14;;;;;;;3.40;3.10;;;26.50;61.50;27.60;100587.00;;;;5026828;28;20685;-41
2022/08/05 03:51:54;;;;;;;4.57;3.30;;;26.60;60.80;27.70;100586.00;;;;5028550;28;20641;-40
2022/08/05 03:54:52;;;;;;;3.90;3.60;;;26.80;60.80;27.70;100586.00;;;;5043874;28;20186;-40
2022/08/05 03:57:21;;;;;;;4.03;3.72;;;26.90;60.90;27.70;100605.00;;;;5041191;28;20194;-40
2022/08/05 03:59:58;;;;;;;3.67;3.25;;;26.90;60.60;27.70;100605.00;;;;5028435;28;20178;-41
2022/08/05 04:02:27;;;;;;;4.45;3.92;;;26.90;60.50;27.70;100593.00;;;;5045726;28;20198;-40
2022/08/05 04:04:52;;;;;;;4.28;3.42;;;27.00;60.60;27.80;100591.00;;;;5043814;28;20195;-40
2022/08/05 04:07:18;;;;;;;4.97;4.10;;;27.00;60.50;27.80;100578.00;;;;5043652;28;20183;-44
2022/08/05 04:09:44;;;;;;;4.57;3.60;;;26.90;60.70;27.80;100573.00;;;;5027605;28;20194;-43
2022/08/05 04:12:10;;;;;;;5.28;3.78;;;26.90;60.50;27.80;100570.00;;;;5043543;28;20159;-44
2022/08/05 04:14:35;;;;;;;5.25;3.17;;;26.90;60.80;27.80;100562.00;;;;5028207;28;20183;-43
2022/08/05 04:17:01;;;;;;;6.47;4.25;;;27.00;60.30;27.80;100560.00;;;;5043569;28;20178;-43
2022/08/05 04:19:27;;;;;;;7.00;3.80;;;27.00;61.20;27.80;100547.00;;;;5027841;28;20244;-43
2022/08/05 04:21:53;;;;;;;4.10;3.70;;;27.00;61.30;27.80;100546.00;;;;5028339;28;20228;-43
2022/08/05 04:24:19;;;;;;;4.43;3.90;;;26.90;60.60;27.80;100539.00;;;;5028068;28;20810;-43
2022/08/05 04:26:45;;;;;;;4.10;3.30;;;26.90;60.70;27.80;100539.00;;;;5027720;28;20206;-43
2022/08/05 04:29:10;;;;;;;3.97;3.38;;;27.00;60.40;27.80;100518.00;;;;5026461;28;20229;-43
2022/08/05 04:31:37;;;;;;;3.97;3.40;;;27.00;60.20;27.80;100509.00;;;;5028330;28;20163;-43
2022/08/05 04:34:02;;;;;;;6.25;3.85;;;26.90;60.50;27.80;100505.00;;;;5028316;28;20209;-43
2022/08/05 04:36:28;;;;;;;4.38;3.55;;;27.00;60.70;27.80;100506.00;;;;5027683;28;20627;-44
2022/08/05 04:38:54;;;;;;;6.03;5.15;;;26.90;60.70;27.70;100521.00;;;;5027594;28;20657;-43
2022/08/05 04:41:20;;;;;;;5.65;4.97;;;26.90;61.70;27.70;100534.00;;;;5027690;28;20183;-44
2022/08/05 04:43:45;;;;;;;5.93;5.35;;;26.80;62.10;27.70;100561.00;;;;5027977;28;20182;-43
2022/08/05 04:46:11;;;;;;;7.07;5.13;;;26.70;62.20;27.60;100561.00;;;;5027622;28;20211;-43
2022/08/05 04:48:37;;;;;;;4.47;4.05;;;26.60;63.50;27.60;100524.00;;;;5027368;28;20166;-43
2022/08/05 04:51:03;;;;;;;5.20;4.22;;;26.60;62.30;27.60;100547.00;;;;5026449;28;20186;-43
2022/08/05 04:53:29;;;;;;;6.50;4.80;;;26.70;62.60;27.60;100560.00;;;;5043220;28;20257;-43
2022/08/05 04:55:55;;;;;;;6.15;4.45;;;26.70;62.90;27.50;100568.00;;;;5027619;28;20465;-43
2022/08/05 04:58:21;;;;;;;5.10;4.60;;;26.70;62.70;27.50;100575.00;;;;5027460;28;20232;-43
2022/08/05 05:00:47;;;;;;;5.90;5.30;;;26.70;63.00;27.50;100592.00;;;;5027471;28;20645;-44
2022/08/05 05:03:12;;;;;;;5.20;4.65;;;26.60;63.00;27.50;100596.00;;;;5027919;28;20221;-43
2022/08/05 05:05:38;;;;;;;6.05;5.38;;;26.60;63.10;27.50;100603.00;;;;5027288;28;20190;-49
2022/08/05 05:08:09;;;;;;;6.13;5.53;;;26.50;63.30;27.50;100614.00;;;;5026720;28;20226;-43
2022/08/05 05:10:43;;;;;;;6.95;6.25;;;26.50;63.40;27.50;100611.00;;;;5026835;28;20537;-43
2022/08/05 05:13:13;;;;;;;5.72;5.22;;;26.40;63.60;27.40;100590.00;;;;5027778;28;20159;-43
2022/08/05 05:15:41;;;;;;;5.25;4.75;;;26.40;63.30;27.40;100578.00;;;;5027324;28;20226;-43
2022/08/05 05:18:07;;;;;;;5.30;4.43;;;26.50;63.00;27.40;100579.00;;;;5026943;28;20175;-43
2022/08/05 05:20:33;;;;;;;5.32;4.90;;;26.60;62.90;27.40;100579.00;;;;5034838;28;20181;-43
2022/08/05 05:23:00;;;;;;;6.22;5.28;;;26.60;62.80;27.40;100576.00;;;;5039282;28;20179;-43
2022/08/05 05:25:26;;;;;;;5.03;4.60;;;26.60;62.70;27.40;100579.00;;;;5027336;28;20187;-43
2022/08/05 05:27:52;;;;;;;5.63;5.05;;;26.60;62.30;27.40;100587.00;;;;5026903;28;20210;-43
2022/08/05 05:30:18;;;;;;;5.50;5.00;;;26.60;62.20;27.40;100572.00;;;;5026722;28;20169;-43
2022/08/05 05:32:44;;;;;;;5.32;4.82;;;26.60;62.10;27.40;100571.00;;;;5027195;28;20726;-43
2022/08/05 05:35:09;;;;;;;6.00;5.50;;;26.60;62.20;27.40;100580.00;;;;5027025;28;20278;-43
2022/08/05 05:37:53;;;;;;;6.95;5.97;;;26.70;62.40;27.40;100593.00;;;;5026862;28;20274;-44
2022/08/05 05:40:22;;;;;;;6.00;5.50;;;26.60;62.40;27.40;100592.00;;;;5026758;28;20770;-44
2022/08/05 05:42:48;;;;;;;5.72;5.25;;;26.60;62.30;27.40;100596.00;;;;5027099;28;20182;-44
2022/08/05 05:45:14;;;;;;;5.72;5.25;;;26.60;63.20;27.40;100597.00;;;;5026882;28;20377;-44
2022/08/05 05:47:39;;;;;;;5.65;5.25;;;26.60;62.40;27.40;100591.00;;;;5026407;28;20213;-42
2022/08/05 05:50:11;;;;;;;5.60;5.10;;;26.60;62.30;27.30;100587.00;;;;5026348;28;20217;-42
2022/08/05 05:52:36;;;;;;;5.22;4.82;;;26.60;62.50;27.40;100590.00;;;;5026838;28;20151;-42
2022/08/05 05:55:04;;;;;;;5.75;5.22;;;26.60;62.60;27.40;100592.00;;;;5026816;28;20237;-42
2022/08/05 05:57:30;;;;;;;4.93;4.53;;;26.60;62.50;27.30;100581.00;;;;5026700;28;20183;-42
2022/08/05 05:59:56;;;;;;;5.50;5.00;;;26.60;62.40;27.30;100582.00;;;;5026522;28;20703;-44
2022/08/05 06:02:22;;;;;;;6.65;5.95;;;26.60;62.30;27.30;100593.00;;;;5026763;28;20750;-42
2022/08/05 06:04:48;;;;;;;5.80;5.30;;;26.60;62.80;27.30;100595.00;;;;5026660;28;20190;-42
2022/08/05 06:07:13;;;;;;;6.45;5.95;;;26.60;62.40;27.30;100589.00;;;;5026516;28;20233;-43
2022/08/05 06:09:39;;;;;;;6.13;5.68;;;26.60;62.80;27.30;100593.00;;;;5026767;28;20185;-42
2022/08/05 06:12:05;;;;;;;6.40;5.85;;;26.60;63.10;27.30;100591.00;;;;5042056;28;20244;-42
2022/08/05 06:14:32;;;;;;;6.35;5.85;;;26.60;62.80;27.30;100590.00;;;;5026815;28;20178;-43
2022/08/05 06:16:58;;;;;;;5.70;5.20;;;26.60;63.10;27.30;100595.00;;;;5026974;28;20174;-42
2022/08/05 06:19:24;;;;;;;7.22;6.50;;;26.60;62.50;27.30;100597.00;;;;5026381;28;20167;-42
2022/08/05 06:21:50;;;;;;;6.85;6.28;;;26.50;63.40;27.30;100606.00;;;;5027986;28;20175;-42
2022/08/05 06:24:16;;;;;;;7.55;6.95;;;26.50;63.40;27.30;100613.00;;;;5026880;28;20175;-42
2022/08/05 06:26:42;;;;;;;6.35;5.85;;;26.50;64.00;27.20;100619.00;;;;5026581;28;20226;-42
2022/08/05 06:29:07;;;;;;;8.07;6.72;;;26.40;63.30;27.20;100613.00;;;;5026631;28;20171;-44
2022/08/05 06:31:33;;;;;;;7.90;7.20;;;26.40;63.30;27.20;100632.00;;;;5026554;28;20175;-41
2022/08/05 06:33:59;;;;;;;8.35;7.65;;;26.40;64.10;27.20;100634.00;;;;5028230;28;20213;-43
2022/08/05 06:36:25;;;;;;;8.15;7.50;;;26.40;63.70;27.20;100643.00;;;;5030303;28;20210;-43
2022/08/05 06:38:53;;;;;;;8.02;7.32;;;26.30;63.80;27.10;100645.00;;;;5029589;28;20229;-43
2022/08/05 06:41:19;;;;;;;8.73;8.00;;;26.20;64.10;27.10;100640.00;;;;5030197;28;21000;-43
2022/08/05 06:43:45;;;;;;;8.73;7.93;;;26.20;64.30;27.10;100642.00;;;;5030278;28;20171;-44
2022/08/05 06:46:11;;;;;;;7.95;7.25;;;26.20;64.20;27.10;100638.00;;;;5029908;28;20241;-44
2022/08/05 06:48:37;;;;;;;7.88;7.28;;;26.20;64.30;27.10;100637.00;;;;5029680;28;20182;-44
2022/08/05 06:51:03;;;;;;;8.27;7.57;;;26.20;64.20;27.00;100638.00;;;;5029407;28;20748;-44
2022/08/05 06:53:29;;;;;;;6.85;6.25;;;26.20;64.30;27.00;100637.00;;;;5045360;28;20630;-44
2022/08/05 06:55:58;;;;;;;8.18;7.47;;;26.20;64.00;27.00;100639.00;;;;5029949;28;20187;-44
2022/08/05 06:58:24;;;;;;;9.40;7.63;;;26.20;64.20;27.00;100639.00;;;;5045206;28;20163;-44
2022/08/05 07:00:50;;;;;;;7.70;7.10;;;26.20;63.90;27.00;100649.00;;;;5044409;28;20177;-44
2022/08/05 07:03:16;;;;;;;8.93;8.10;;;26.20;64.10;27.00;100639.00;;;;5030254;28;20179;-44
2022/08/05 07:05:42;;;;;;;9.32;8.43;;;26.20;64.10;27.00;100647.00;;;;5030331;28;20190;-44
2022/08/05 07:08:07;;;;;;;8.40;7.68;;;26.20;63.90;27.00;100649.00;;;;5029883;28;20183;-44
2022/08/05 07:10:33;;;;;;;9.60;8.68;;;26.20;63.60;27.00;100648.00;;;;5031166;28;20175;-44
2022/08/05 07:18:27;;;;;;;10.32;9.45;;;26.10;63.70;26.90;100654.00;;;;5029318;28;20212;-42
2022/08/05 07:20:53;;;;;;;11.23;10.15;;;26.10;63.90;26.90;100657.00;;;;5029070;28;20254;-42
2022/08/05 07:23:19;;;;;;;11.32;10.25;;;26.10;64.00;26.90;100654.00;;;;5029228;28;20171;-43
2022/08/05 07:25:44;;;;;;;11.25;10.45;;;26.00;63.80;26.90;100670.00;;;;5028044;28;20233;-43
2022/08/05 07:28:10;;;;;;;13.35;12.35;;;26.10;64.10;26.80;100675.00;;;;5028727;28;20198;-42
2022/08/05 07:30:36;;;;;;;12.68;11.68;;;26.00;64.10;26.80;100684.00;;;;5029131;28;20212;-42
2022/08/05 07:33:03;;;;;;;12.65;11.55;;;26.00;64.00;26.80;100694.00;;;;5029100;28;20178;-42
2022/08/05 07:35:29;;;;;;;12.85;11.75;;;26.00;63.90;26.80;100695.00;;;;5038188;28;20206;-42
2022/08/05 07:37:55;;;;;;;12.02;11.13;;;26.00;63.90;26.80;100693.00;;;;4930192;28;20230;-44
2022/08/05 07:40:21;;;;;;;11.68;10.77;;;26.00;63.90;26.80;100668.00;;;;5028131;28;20887;-44
2022/08/05 07:42:47;;;;;;;11.77;10.88;;;26.00;63.80;26.80;100695.00;;;;5013178;28;20522;-44
2022/08/05 07:45:13;;;;;;;12.13;11.05;;;26.00;64.20;26.80;100704.00;;;;5007243;28;20324;-44
2022/08/05 07:47:38;;;;;;;11.82;11.02;;;26.00;64.10;26.80;100696.00;;;;5008296;28;20598;-44
2022/08/05 07:50:05;;;;;;;13.15;12.05;;;25.90;64.30;26.80;100695.00;;;;5007301;28;20184;-44
2022/08/05 07:52:31;;;;;;;13.30;12.18;;;25.90;64.30;26.80;100701.00;;;;5008484;28;20725;-43
2022/08/05 07:54:56;;;;;;;13.82;12.73;;;25.90;64.10;26.80;100702.00;;;;5022957;28;20286;-43
2022/08/05 07:57:22;;;;;;;14.57;13.23;;;25.90;64.20;26.70;100707.00;;;;5027617;28;20537;-43
2022/08/05 07:59:48;;;;;;;14.60;13.38;;;25.90;64.10;26.70;100711.00;;;;5028070;28;20175;-43
2022/08/05 08:02:14;;;;;;;17.17;15.77;;;25.90;64.20;26.70;100718.00;;;;5028148;28;20249;-43
2022/08/05 08:04:39;;;;;;;18.17;16.58;;;25.90;64.30;26.70;100725.00;;;;5028267;28;20630;-44
2022/08/05 08:07:05;;;;;;;19.20;17.48;;;25.90;64.50;26.70;100731.00;;;;5027339;28;20562;-42
2022/08/05 08:09:31;;;;;;;19.52;17.70;;;25.80;64.60;26.70;100736.00;;;;5028219;28;20186;-42
2022/08/05 08:11:56;;;;;;;20.40;18.70;;;25.80;64.80;26.60;100741.00;;;;5027889;28;20173;-42
2022/08/05 08:14:22;;;;;;;20.35;18.52;;;25.80;64.50;26.70;100745.00;;;;5028081;28;20167;-42
2022/08/05 08:16:48;;;;;;;19.75;18.10;;;25.80;64.50;26.60;100747.00;;;;5027347;28;20199;-43
2022/08/05 08:19:14;;;;;;;18.27;16.67;;;25.80;64.60;26.60;100753.00;;;;5023325;28;20238;-42
2022/08/05 08:21:41;;;;;;;16.70;15.30;;;25.70;64.40;26.60;100754.00;;;;5020893;28;20241;-42
2022/08/05 08:24:07;;;;;;;16.50;15.00;;;25.70;64.40;26.60;100748.00;;;;5017445;28;20194;-42
2022/08/05 08:26:34;;;;;;;15.00;13.80;;;25.70;64.40;26.60;100751.00;;;;5022853;28;20231;-42
2022/08/05 08:29:00;;;;;;;14.70;13.40;;;25.70;64.40;26.50;100759.00;;;;5008969;28;20191;-43
2022/08/05 08:31:26;;;;;;;13.18;12.05;;;25.60;64.30;26.50;100766.00;;;;5008980;28;20179;-44
2022/08/05 08:33:52;;;;;;;11.68;10.68;;;25.60;64.30;26.50;100771.00;;;;5009012;28;20170;-44
2022/08/05 08:36:18;;;;;;;11.13;10.13;;;25.50;64.20;26.50;100780.00;;;;4959936;28;20199;-44
2022/08/05 08:38:44;;;;;;;11.95;10.50;;;25.50;64.20;26.50;100782.00;;;;5009037;28;20180;-42
2022/08/05 08:41:09;;;;;;;10.35;9.35;;;25.50;64.20;26.50;100784.00;;;;5008798;28;20661;-42
2022/08/05 08:43:35;;;;;;;10.35;9.40;;;25.60;64.10;26.50;100771.00;;;;5007684;28;20178;-42
2022/08/05 08:46:02;;;;;;;10.82;9.85;;;25.60;63.70;26.50;100775.00;;;;5008709;28;20755;-42
2022/08/05 08:48:28;;;;;;;12.65;9.65;;;25.70;63.80;26.50;100784.00;;;;5007810;28;20225;-44
2022/08/05 08:50:54;;;;;;;10.57;9.63;;;25.60;63.60;26.40;100784.00;;;;5008785;28;20171;-43
2022/08/05 08:53:20;;;;;;;10.30;9.30;;;25.60;63.40;26.40;100781.00;;;;5019143;28;20178;-47
2022/08/05 08:55:45;;;;;;;9.73;8.88;;;25.70;63.50;26.40;100784.00;;;;5012117;28;20196;-47
2022/08/05 08:58:11;;;;;;;12.88;10.05;;;25.70;63.30;26.40;100785.00;;;;5008805;28;20620;-45
2022/08/05 09:00:37;;;;;;;11.27;10.20;;;25.70;63.30;26.50;100799.00;;;;5023916;28;20183;-45
2022/08/05 09:03:05;;;;;;;10.98;9.88;;;25.70;63.10;26.50;100801.00;;;;5007388;28;20188;-45
2022/08/05 09:05:31;;;;;;;9.88;9.00;;;25.70;62.90;26.50;100804.00;;;;5008153;28;20195;-46
2022/08/05 09:07:57;;;;;;;9.27;8.48;;;25.80;62.90;26.50;100819.00;;;;5006628;28;20199;-45
2022/08/05 09:10:22;;;;;;;12.95;8.23;;;25.70;62.80;26.40;100824.00;;;;5008373;28;20179;-47
2022/08/05 09:12:48;;;;;;;9.05;7.85;;;25.70;63.20;26.40;100830.00;;;;5007017;28;20631;-46
2022/08/05 09:15:14;;;;;;;7.63;7.03;;;25.70;62.80;26.40;100833.00;;;;5008000;28;20211;-46
2022/08/05 09:17:40;;;;;;;7.88;7.18;;;25.70;62.50;26.40;100845.00;;;;5007882;28;20222;-47
2022/08/05 09:20:07;;;;;;;7.15;6.45;;;25.70;62.10;26.40;100843.00;;;;5008336;28;20203;-46
2022/08/05 09:23:11;;;;;;;6.38;5.78;;;25.60;62.00;26.40;100839.00;;;;5007101;28;20168;-45
2022/08/05 09:25:39;;;;;;;9.80;5.22;;;25.60;62.10;26.40;100844.00;;;;5008363;28;20207;-47
2022/08/05 09:28:22;;;;;;;8.35;5.22;;;25.60;62.10;26.40;100844.00;;;;5008062;28;20195;-45
2022/08/05 09:31:03;;;;;;;5.68;4.68;;;25.60;61.70;26.40;100851.00;;;;5007754;28;20159;-46
2022/08/05 09:33:29;;;;;;;8.95;5.20;;;25.60;61.60;26.40;100848.00;;;;5008493;28;20561;-47
2022/08/05 09:36:03;;;;;;;6.68;4.45;;;25.60;62.20;26.40;100857.00;;;;4974047;28;20705;-46
2022/08/05 09:38:29;;;;;;;5.15;4.60;;;25.60;63.20;26.10;100856.00;;;;5007987;28;20742;-46
2022/08/05 09:41:07;;;;;;;5.28;4.53;;;25.50;62.50;26.30;100854.00;;;;5008405;28;20229;-46
2022/08/05 09:43:37;;;;;;;4.95;4.45;;;25.60;62.60;26.30;100853.00;;;;5006937;28;20214;-47
2022/08/05 09:46:05;;;;;;;4.70;4.22;;;25.50;63.00;26.30;100812.00;;;;5008047;28;20195;-47
2022/08/05 09:48:32;;;;;;;5.32;4.10;;;25.60;62.70;26.30;100858.00;;;;5006847;28;20178;-46
2022/08/05 09:51:04;;;;;;;6.28;4.38;;;25.60;62.60;26.30;100848.00;;;;5007844;28;20638;-47
2022/08/05 09:53:30;;;;;;;4.43;4.03;;;25.50;62.30;26.20;100850.00;;;;5006813;28;20178;-46
2022/08/05 09:55:59;;;;;;;4.97;4.22;;;25.50;62.00;26.20;100869.00;;;;5006563;28;20195;-46
2022/08/05 09:58:26;;;;;;;4.65;3.78;;;25.50;61.90;26.20;100864.00;;;;5008176;28;20298;-47
2022/08/05 10:00:59;;;;;;;5.70;3.85;;;25.40;61.70;26.20;100866.00;;;;5006857;28;20183;-45
2022/08/05 10:03:24;;;;;;;4.18;3.65;;;25.40;61.60;26.20;100797.00;;;;5007851;28;20608;-47
2022/08/05 10:06:20;;;;;;;3.90;3.50;;;25.40;61.30;26.20;100863.00;;;;5006375;28;20283;-45
2022/08/05 10:08:47;;;;;;;3.97;3.45;;;25.40;61.30;26.20;100875.00;;;;5009141;28;20281;-45
2022/08/05 10:11:14;;;;;;;3.85;3.40;;;25.40;61.20;26.20;100889.00;;;;5030071;28;20202;-46
2022/08/05 10:13:40;;;;;;;3.45;2.90;;;25.40;61.10;26.10;100889.00;;;;5031356;28;20206;-47
2022/08/05 10:16:07;;;;;;;3.80;3.40;;;25.40;61.90;26.10;100892.00;;;;5031304;28;20270;-47
2022/08/05 10:18:34;;;;;;;3.47;3.17;;;25.40;61.10;26.20;100901.00;;;;5029905;28;20209;-46
2022/08/05 10:21:03;;;;;;;5.50;3.03;;;25.40;60.90;26.20;100909.00;;;;5031455;28;20178;-46
2022/08/05 10:23:35;;;;;;;11.43;3.10;;;25.40;60.90;26.20;100913.00;;;;5031325;28;20171;-46
2022/08/05 10:26:04;;;;;;;9.65;3.45;;;25.40;61.30;26.10;100917.00;;;;5031069;28;20821;-45
2022/08/05 10:28:30;;;;;;;3.53;2.95;;;25.40;60.90;26.20;100917.00;;;;5031196;28;20198;-46
2022/08/05 10:30:59;;;;;;;4.05;2.90;;;25.40;61.20;26.20;100926.00;;;;5020400;28;20180;-46
2022/08/05 10:33:27;;;;;;;3.90;3.20;;;25.40;60.90;26.20;100920.00;;;;5011472;28;20176;-45
2022/08/05 10:35:53;;;;;;;3.15;2.85;;;25.40;61.00;26.20;100932.00;;;;4982788;28;20257;-45
2022/08/05 10:38:24;;;;;;;3.53;2.90;;;25.40;60.80;26.20;100928.00;;;;4988828;28;20238;-46
2022/08/05 10:40:52;;;;;;;3.75;2.97;;;25.40;60.70;26.20;100924.00;;;;5026033;28;20164;-46
2022/08/05 10:43:40;;;;;;;7.10;3.08;;;25.40;60.90;26.10;100924.00;;;;5011507;28;20274;-46
2022/08/05 10:46:08;;;;;;;11.10;3.10;;;25.50;61.80;26.10;100944.00;;;;5010752;28;20227;-46
2022/08/05 10:48:47;;;;;;;3.95;2.90;;;25.40;61.30;26.10;100940.00;;;;5011067;28;20182;-44
2022/08/05 10:51:18;;;;;;;3.05;2.50;;;25.40;61.30;26.10;100958.00;;;;5011361;28;20210;-45
2022/08/05 10:53:49;;;;;;;4.70;2.88;;;25.40;61.20;26.10;100953.00;;;;5011108;28;20255;-45